Lahore Weather



Lahore's Current Weather

Temprature 25.91o smoke

smoke

Rain: 0 %

Min Temprature25o
Max Temprature27o
Humidity78
Wind Speed2.6 m/h
Sun Rise05:32:42
Sun Set18:38:38
Current Time: 23-Aug-2019 05:45:53
Lat/Lon: 31.52, 74.33




Lahore's Geo Location



Lahore's Weather Forecast

Time Overall Temp Min Temp Max Temp Humidity Wind Speed Rain
23-Aug-2019 (Fri)
08:00:00 clear sky 30.210 30.210 32.157 51 2.79 m/h 0 %
11:00:00 clear sky 36.290 36.290 37.750 32 2.94 m/h 0 %
14:00:00 clear sky 39.760 39.760 40.731 23 3.5 m/h 0 %
17:00:00 clear sky 40.220 40.220 40.711 20 3.39 m/h 0 %
20:00:00 scattered clouds 34.450 34.450 34.450 36 3.89 m/h 0 %
23:00:00 scattered clouds 31.942 31.942 31.942 44 3.58 m/h 0 %
24-Aug-2019 (Sat)
02:00:00 few clouds 30.131 30.131 30.131 50 2.55 m/h 0 %
05:00:00 clear sky 29.555 29.555 29.555 49 2.85 m/h 0 %
08:00:00 clear sky 33.507 33.507 33.507 39 2.92 m/h 0 %
11:00:00 clear sky 40.769 40.769 40.769 21 0.94 m/h 0 %
14:00:00 clear sky 42.769 42.769 42.769 17 2.06 m/h 0 %
17:00:00 clear sky 42.323 42.323 42.323 15 1.92 m/h 0 %
20:00:00 clear sky 35.650 35.650 35.650 30 4.66 m/h 0 %
23:00:00 clear sky 33.369 33.369 33.369 46 4.76 m/h 0 %
25-Aug-2019 (Sun)
02:00:00 clear sky 31.631 31.631 31.631 50 4.4 m/h 0 %
05:00:00 clear sky 29.857 29.857 29.857 57 3.67 m/h 0 %
08:00:00 clear sky 34.714 34.714 34.714 38 2.99 m/h 0 %
11:00:00 clear sky 41.316 41.316 41.316 20 0.59 m/h 0 %
14:00:00 clear sky 43.850 43.850 43.850 16 1 m/h 0 %
17:00:00 few clouds 40.950 40.950 40.950 21 5.01 m/h 0 %
20:00:00 scattered clouds 34.581 34.581 34.581 48 6.89 m/h 0 %
23:00:00 few clouds 31.911 31.911 31.911 58 6.57 m/h 0 %
26-Aug-2019 (Mon)
02:00:00 clear sky 29.465 29.465 29.465 65 6.51 m/h 0 %
05:00:00 few clouds 28.550 28.550 28.550 66 4.11 m/h 0 %
08:00:00 scattered clouds 30.967 30.967 30.967 58 4.55 m/h 0 %
11:00:00 few clouds 37.572 37.572 37.572 38 5.13 m/h 0 %
14:00:00 clear sky 40.884 40.884 40.884 28 4.33 m/h 0 %
17:00:00 clear sky 40.420 40.420 40.420 27 5.1 m/h 0 %
20:00:00 clear sky 34.672 34.672 34.672 44 4.74 m/h 0 %
23:00:00 scattered clouds 32.314 32.314 32.314 54 2.71 m/h 0 %
27-Aug-2019 (Tue)
02:00:00 overcast clouds 31.016 31.016 31.016 58 3.09 m/h 0 %
05:00:00 broken clouds 29.650 29.650 29.650 60 1.9 m/h 0 %
08:00:00 broken clouds 33.035 33.035 33.035 48 2.56 m/h 0 %
11:00:00 broken clouds 37.836 37.836 37.836 35 2.31 m/h 0 %
14:00:00 broken clouds 40.936 40.936 40.936 25 2.46 m/h 0 %
17:00:00 scattered clouds 40.265 40.265 40.265 24 3.16 m/h 0 %
20:00:00 broken clouds 35.350 35.350 35.350 36 1.76 m/h 0 %
23:00:00 scattered clouds 32.950 32.950 32.950 53 3.96 m/h 0 %
28-Aug-2019 (Wed)
02:00:00 few clouds 31.657 31.657 31.657 58 2.64 m/h 0 %
05:00:00 broken clouds 31.672 31.672 31.672 57 2.59 m/h 0 %


Lahore's Tourist Spots

Museums in Lahore

Historical Places in Lahore

Famous Cities (61)